Time;durP1;ratioP1;P1;durP2;ratioP2;P2;SDS_P1;SDS_P2;PMS_P1;PMS_P2;Temp;Humidity;BMP_temperature;BMP_pressure;BME280_temperature;BME280_humidity;BME280_pressure;Samples;Min_cycle;Max_cycle;Signal;HPM_P1;HPM_P2
2022/06/03 00:00:21;;;;;;;5.85;5.32;;;;;;;12.08;80.44;101899.81;4961524;28;20037;-66
2022/06/03 00:03:08;;;;;;;5.82;5.32;;;;;;;12.08;79.54;101901.50;4970024;28;20037;-66
2022/06/03 00:06:11;;;;;;;6.18;5.47;;;;;;;12.11;79.03;101899.06;4969460;28;20031;-66
2022/06/03 00:08:51;;;;;;;5.75;4.88;;;;;;;12.08;78.88;101896.31;4969872;28;20103;-66
2022/06/03 00:11:40;;;;;;;5.15;4.75;;;;;;;12.07;79.37;101892.81;4969757;28;20038;-66
2022/06/03 00:14:25;;;;;;;4.95;4.65;;;;;;;12.04;79.90;101895.31;4967152;28;20157;-66
2022/06/03 00:17:22;;;;;;;5.40;4.82;;;;;;;12.03;79.91;101893.53;4969775;28;20037;-66
2022/06/03 00:20:18;;;;;;;5.20;4.70;;;;;;;12.05;79.06;101894.50;4967812;28;20031;-66
2022/06/03 00:23:13;;;;;;;5.47;4.85;;;;;;;12.03;81.14;101893.53;4963844;28;20026;-66
2022/06/03 00:26:11;;;;;;;4.50;4.10;;;;;;;12.06;81.02;101895.38;4969701;28;20042;-66
2022/06/03 00:29:11;;;;;;;5.18;4.78;;;;;;;12.06;80.40;101893.66;4969653;28;20035;-66
2022/06/03 00:31:54;;;;;;;5.07;4.68;;;;;;;12.09;80.73;101895.47;4968120;28;20051;-66
2022/06/03 00:34:46;;;;;;;5.65;5.18;;;;;;;12.10;80.44;101897.31;4969284;28;20112;-66
2022/06/03 00:37:21;;;;;;;5.90;5.28;;;;;;;12.09;80.16;101890.28;4968769;28;20027;-67
2022/06/03 00:39:46;;;;;;;5.90;5.40;;;;;;;12.09;79.59;101887.69;4968758;28;20060;-66
2022/06/03 00:42:18;;;;;;;5.15;4.75;;;;;;;12.07;80.27;101889.38;4968964;28;20467;-66
2022/06/03 00:44:49;;;;;;;5.53;5.13;;;;;;;12.06;79.96;101891.06;4968925;28;20042;-66
2022/06/03 00:47:34;;;;;;;6.78;5.20;;;;;;;12.01;81.04;101888.28;4968408;28;20088;-66
2022/06/03 00:50:31;;;;;;;5.57;5.15;;;;;;;12.00;80.67;101885.59;4968805;28;20490;-66
2022/06/03 00:53:19;;;;;;;5.35;4.85;;;;;;;11.98;80.20;101885.53;4964925;28;20534;-66
2022/06/03 00:55:58;;;;;;;5.60;5.10;;;;;;;11.95;80.43;101882.81;4968437;28;20031;-66
2022/06/03 00:58:34;;;;;;;5.40;4.90;;;;;;;11.95;81.26;101887.09;4969136;28;20022;-66
2022/06/03 01:01:20;;;;;;;5.60;5.10;;;;;;;11.89;81.40;101892.94;4968539;28;20090;-66
2022/06/03 01:04:16;;;;;;;6.22;5.32;;;;;;;11.85;81.33;101885.84;4968071;28;20435;-66
2022/06/03 01:07:07;;;;;;;5.95;5.47;;;;;;;11.84;81.24;101884.94;4968285;28;20430;-66
2022/06/03 01:09:59;;;;;;;5.32;4.82;;;;;;;11.81;81.36;101884.81;4968768;28;20498;-66
2022/06/03 01:12:46;;;;;;;5.20;4.90;;;;;;;11.79;81.65;101880.34;4966186;28;20092;-66
2022/06/03 01:15:14;;;;;;;6.43;5.30;;;;;;;11.79;81.43;101872.56;4968726;28;20026;-66
2022/06/03 01:17:39;;;;;;;5.78;5.38;;;;;;;11.80;80.55;101870.03;4968532;28;20061;-66
2022/06/03 01:20:20;;;;;;;6.38;5.25;;;;;;;11.82;80.60;101871.00;4967870;28;20125;-66
2022/06/03 01:23:11;;;;;;;6.07;5.57;;;;;;;11.84;81.61;101863.25;4966105;28;20450;-66
2022/06/03 01:26:01;;;;;;;6.13;5.60;;;;;;;11.83;83.00;101866.69;4968291;28;20506;-66
2022/06/03 01:28:35;;;;;;;5.60;5.15;;;;;;;11.82;82.71;101862.34;4968330;28;20085;-66
2022/06/03 01:31:31;;;;;;;6.40;5.80;;;;;;;11.81;82.05;101863.13;4967677;28;20045;-66
2022/06/03 01:34:43;;;;;;;5.85;5.35;;;;;;;11.79;82.21;101854.38;4968399;28;20022;-66
2022/06/03 01:37:30;;;;;;;5.63;5.13;;;;;;;11.79;80.99;101846.59;4943693;29;20032;-66
2022/06/03 01:40:31;;;;;;;5.47;5.07;;;;;;;11.82;80.60;101850.22;4966543;28;20027;-66
2022/06/03 01:43:18;;;;;;;5.28;4.88;;;;;;;11.87;81.32;101860.81;4967173;28;20539;-66
2022/06/03 01:46:31;;;;;;;5.53;5.03;;;;;;;11.85;81.72;101849.47;4967193;28;20030;-66
2022/06/03 01:48:56;;;;;;;5.32;4.93;;;;;;;11.87;80.72;101842.66;4959364;28;20258;-66
2022/06/03 01:51:37;;;;;;;5.32;4.93;;;;;;;11.86;79.83;101852.13;4967745;28;20117;-66
2022/06/03 01:54:33;;;;;;;5.50;5.10;;;;;;;11.87;79.68;101847.84;4968001;28;20030;-66
2022/06/03 01:57:36;;;;;;;5.57;5.18;;;;;;;11.86;81.05;101846.03;4967574;28;20027;-66
2022/06/03 02:00:02;;;;;;;5.80;5.30;;;;;;;11.82;81.28;101838.97;4967375;28;20078;-66
2022/06/03 02:03:05;;;;;;;5.10;4.70;;;;;;;11.77;81.08;101831.84;4967206;28;20031;-66
2022/06/03 02:06:02;;;;;;;5.65;5.15;;;;;;;11.78;80.63;101837.94;4962929;28;20043;-66
2022/06/03 02:08:46;;;;;;;5.70;5.20;;;;;;;11.79;79.98;101833.63;4967580;28;20022;-66
2022/06/03 02:11:27;;;;;;;6.13;5.63;;;;;;;11.77;81.33;101829.25;4967493;28;20572;-66
2022/06/03 02:14:07;;;;;;;5.75;5.25;;;;;;;11.75;82.20;101825.69;4965887;28;20045;-66
2022/06/03 02:17:09;;;;;;;5.25;4.85;;;;;;;11.71;81.69;101821.19;4967332;28;20039;-66
2022/06/03 02:19:54;;;;;;;5.25;4.85;;;;;;;11.71;81.11;101821.19;4967430;28;20041;-66
2022/06/03 02:22:34;;;;;;;5.75;5.25;;;;;;;11.71;80.35;101821.19;4967715;28;20065;-66
2022/06/03 02:25:14;;;;;;;6.78;6.10;;;;;;;11.73;80.85;101834.22;4967284;28;20031;-66
2022/06/03 02:27:58;;;;;;;5.43;5.03;;;;;;;11.72;81.65;101833.38;4966675;28;20061;-66
2022/06/03 02:30:34;;;;;;;5.65;5.25;;;;;;;11.73;81.58;101832.53;4966944;28;20030;-66
2022/06/03 02:33:15;;;;;;;6.05;5.57;;;;;;;11.73;81.73;101823.84;4966941;28;20039;-66
2022/06/03 02:36:02;;;;;;;6.20;5.70;;;;;;;11.71;82.62;101828.13;4967303;28;20373;-66
2022/06/03 02:38:33;;;;;;;5.68;5.28;;;;;;;11.68;82.40;101821.06;4967447;28;20066;-66
2022/06/03 02:41:10;;;;;;;;;;;;;;;11.66;81.41;101817.50;4967404;28;20043;-66
2022/06/03 02:44:09;;;;;;;6.18;5.57;;;;;;;11.64;81.95;101821.75;4967211;28;20015;-66
2022/06/03 02:46:59;;;;;;;5.35;4.93;;;;;;;11.59;82.16;101816.38;4965693;28;20030;-66
2022/06/03 02:49:43;;;;;;;6.63;6.13;;;;;;;11.60;82.83;101814.66;4964832;28;20085;-66
2022/06/03 02:52:33;;;;;;;7.43;6.15;;;;;;;11.55;83.34;101818.78;4966720;28;20035;-66
2022/06/03 02:55:01;;;;;;;6.05;5.55;;;;;;;11.52;83.01;101807.44;4974051;28;20038;-66
2022/06/03 02:57:51;;;;;;;6.30;5.70;;;;;;;11.47;83.16;101806.34;4964945;28;20038;-66
2022/06/03 03:00:28;;;;;;;7.03;5.82;;;;;;;11.46;82.99;101806.28;4966789;28;20037;-65
2022/06/03 03:03:13;;;;;;;7.25;6.55;;;;;;;11.44;83.58;101816.56;4968232;28;20026;-66
2022/06/03 03:06:15;;;;;;;7.40;6.80;;;;;;;11.37;84.73;101815.41;4938042;28;20038;-66
2022/06/03 03:08:40;;;;;;;;;;;;;;;11.32;84.71;101816.91;4970500;28;20027;-66
2022/06/03 03:11:29;;;;;;;6.82;6.30;;;;;;;11.31;85.38;101824.66;4969813;28;19987;-66
2022/06/03 03:14:06;;;;;;;7.43;6.72;;;;;;;11.26;85.27;101827.03;4967624;28;20574;-66
2022/06/03 03:17:03;;;;;;;7.30;6.70;;;;;;;11.22;85.13;101826.03;4969269;28;20361;-66
2022/06/03 03:19:53;;;;;;;6.47;5.97;;;;;;;11.17;86.12;101817.16;4968256;28;20050;-66
2022/06/03 03:22:32;;;;;;;7.17;6.53;;;;;;;11.15;85.66;101805.81;4968418;28;20360;-66
2022/06/03 03:25:12;;;;;;;7.05;6.50;;;;;;;11.15;85.48;101803.22;4968712;28;20277;-66
2022/06/03 03:28:03;;;;;;;6.65;6.15;;;;;;;11.13;86.47;101808.34;4967174;28;20479;-66
2022/06/03 03:30:28;;;;;;;7.07;6.47;;;;;;;11.13;86.27;101802.25;4969895;28;20026;-66
2022/06/03 03:33:06;;;;;;;7.03;6.53;;;;;;;11.11;86.18;101803.88;4970081;28;20026;-66
2022/06/03 03:35:59;;;;;;;8.63;7.05;;;;;;;11.11;86.59;101796.09;4970508;28;20431;-65
2022/06/03 03:38:43;;;;;;;6.97;6.47;;;;;;;11.09;86.74;101803.81;4967960;28;20034;-66
2022/06/03 03:41:36;;;;;;;7.60;7.00;;;;;;;11.08;86.33;101799.44;4967859;28;20128;-66
2022/06/03 03:44:34;;;;;;;7.45;6.85;;;;;;;11.07;86.99;101794.16;4969988;28;20042;-66
2022/06/03 03:47:24;;;;;;;7.63;6.93;;;;;;;11.05;87.02;101794.09;4970236;28;20089;-66
2022/06/03 03:50:24;;;;;;;6.68;6.03;;;;;;;11.06;86.40;101798.50;4970211;28;20542;-66
2022/06/03 03:53:41;;;;;;;6.88;6.35;;;;;;;11.05;86.64;101796.69;4968184;28;20356;-66
2022/06/03 03:56:35;;;;;;;7.47;6.78;;;;;;;11.04;86.17;101795.81;4943089;29;20031;-65
2022/06/03 03:59:28;;;;;;;7.38;6.68;;;;;;;11.02;86.37;101797.47;4968616;28;20047;-66
2022/06/03 04:02:39;;;;;;;7.50;6.93;;;;;;;11.01;86.24;101792.22;4969338;28;20030;-66
2022/06/03 04:05:23;;;;;;;7.72;7.07;;;;;;;11.01;86.20;101794.81;4967508;28;20494;-66
2022/06/03 04:08:07;;;;;;;6.95;6.40;;;;;;;11.00;86.56;101783.53;4967585;28;20105;-66
2022/06/03 04:11:14;;;;;;;7.50;6.90;;;;;;;11.00;86.57;101783.53;4968076;28;20109;-66
2022/06/03 04:14:11;;;;;;;7.35;6.70;;;;;;;11.02;86.31;101792.28;4962004;28;20085;-66
2022/06/03 04:16:53;;;;;;;7.07;6.43;;;;;;;11.02;87.16;101783.59;4969560;28;20035;-66
2022/06/03 04:19:37;;;;;;;6.97;6.38;;;;;;;11.05;86.08;101788.91;4969500;28;20035;-66
2022/06/03 04:22:08;;;;;;;7.72;6.97;;;;;;;11.05;86.95;101787.22;4969170;28;20035;-66
2022/06/03 04:25:10;;;;;;;7.30;6.70;;;;;;;11.09;87.17;101787.34;4966151;28;20057;-66
2022/06/03 04:27:43;;;;;;;;;;;;;;;11.12;86.45;101782.28;4968364;28;20035;-66
2022/06/03 04:30:23;;;;;;;7.65;6.95;;;;;;;11.15;86.34;101772.94;4969363;28;19917;-66
2022/06/03 04:33:34;;;;;;;7.78;7.10;;;;;;;11.16;86.41;101769.53;4968860;28;20027;-66
2022/06/03 04:36:21;;;;;;;;;;;;;;;11.21;86.20;101772.34;4969283;28;20031;-66
2022/06/03 04:39:11;;;;;;;8.35;7.57;;;;;;;11.27;85.82;101772.63;4937658;28;19910;-66
2022/06/03 04:41:42;;;;;;;7.90;7.20;;;;;;;11.32;86.28;101779.69;4969238;28;20025;-66
2022/06/03 04:44:31;;;;;;;7.65;7.05;;;;;;;11.35;85.75;101779.84;4968537;28;20027;-66
2022/06/03 04:47:21;;;;;;;8.05;7.18;;;;;;;11.40;85.25;101789.59;4968835;28;20297;-65
2022/06/03 04:50:11;;;;;;;7.63;7.03;;;;;;;11.45;85.29;101787.22;4966196;28;20474;-66
2022/06/03 04:53:18;;;;;;;8.00;7.30;;;;;;;11.50;85.03;101800.38;4969220;28;20027;-66
2022/06/03 04:56:09;;;;;;;7.47;6.88;;;;;;;11.56;84.98;101795.47;4969608;28;20030;-66
2022/06/03 04:59:06;;;;;;;8.68;7.15;;;;;;;11.62;84.61;101805.25;4969207;28;20548;-65
2022/06/03 05:01:35;;;;;;;8.65;7.85;;;;;;;11.65;85.03;101792.38;4961995;28;20027;-66
2022/06/03 05:04:37;;;;;;;7.78;7.18;;;;;;;11.71;85.05;101792.63;4961184;28;20035;-66
2022/06/03 05:07:09;;;;;;;8.02;7.43;;;;;;;11.80;84.61;101791.25;4957762;28;20026;-66
2022/06/03 05:10:12;;;;;;;8.77;7.97;;;;;;;11.86;84.06;101791.50;4969415;28;20440;-65
2022/06/03 05:12:59;;;;;;;8.82;7.93;;;;;;;11.93;83.99;101793.53;4969290;28;20031;-66
2022/06/03 05:16:02;;;;;;;7.95;7.32;;;;;;;12.00;84.82;101798.16;4969199;28;20027;-66
2022/06/03 05:18:40;;;;;;;7.93;7.30;;;;;;;12.09;84.57;101791.56;4967875;28;20431;-65
2022/06/03 05:21:24;;;;;;;8.68;7.97;;;;;;;12.13;83.37;101781.41;4967759;28;20506;-66
2022/06/03 05:24:04;;;;;;;8.52;7.82;;;;;;;12.19;83.68;101783.38;4968576;28;20129;-66
2022/06/03 05:26:35;;;;;;;7.97;7.18;;;;;;;12.24;84.45;101781.84;4950559;28;20027;-66
2022/06/03 05:29:23;;;;;;;8.20;7.40;;;;;;;12.39;83.48;101785.00;4968987;28;20383;-65
2022/06/03 05:32:10;;;;;;;8.50;7.60;;;;;;;12.54;83.01;101784.72;4967814;28;20027;-66
2022/06/03 05:34:41;;;;;;;9.00;8.02;;;;;;;12.57;82.52;101774.44;4968794;28;20101;-66
2022/06/03 05:37:12;;;;;;;8.10;7.30;;;;;;;12.70;82.47;101771.47;4968748;28;20049;-66
2022/06/03 05:40:21;;;;;;;7.43;6.75;;;;;;;12.86;82.49;101769.47;4968235;28;20026;-66
2022/06/03 05:43:14;;;;;;;7.72;7.13;;;;;;;12.97;81.97;101775.94;4962149;28;20039;-66
2022/06/03 05:46:01;;;;;;;7.80;7.18;;;;;;;13.13;82.17;101773.88;4965858;28;20027;-66
2022/06/03 05:48:45;;;;;;;7.35;6.78;;;;;;;13.30;81.84;101778.81;4966250;28;20168;-65
2022/06/03 05:51:30;;;;;;;7.88;7.10;;;;;;;13.41;80.63;101779.19;4964186;28;20045;-66
2022/06/03 05:54:32;;;;;;;7.70;6.68;;;;;;;13.55;80.00;101769.28;4965873;28;20035;-66
2022/06/03 05:57:12;;;;;;;15.13;8.20;;;;;;;13.67;79.31;101774.94;4966293;28;20132;-66
2022/06/03 06:00:05;;;;;;;8.43;7.70;;;;;;;13.77;78.82;101775.25;4966674;28;20027;-66
2022/06/03 06:02:40;;;;;;;8.48;7.55;;;;;;;13.88;79.15;101783.41;4966834;28;20030;-66
2022/06/03 06:05:15;;;;;;;8.13;7.40;;;;;;;14.00;78.52;101782.94;4967170;28;20019;-65
2022/06/03 06:07:56;;;;;;;7.97;7.22;;;;;;;14.10;78.40;101779.81;4972487;28;20035;-67
2022/06/03 06:10:40;;;;;;;7.95;7.20;;;;;;;14.25;77.63;101775.91;4964325;28;20582;-66
2022/06/03 06:13:30;;;;;;;7.10;6.40;;;;;;;14.37;77.32;101772.81;4958559;28;20077;-66
2022/06/03 06:16:14;;;;;;;7.18;6.57;;;;;;;14.51;77.30;101776.75;4967016;28;20031;-66
2022/06/03 06:18:57;;;;;;;8.18;7.40;;;;;;;14.69;76.86;101774.63;4966220;28;20031;-66
2022/06/03 06:21:57;;;;;;;10.60;8.30;;;;;;;14.85;76.31;101782.09;4966960;28;20403;-66
2022/06/03 06:24:44;;;;;;;9.43;7.40;;;;;;;15.01;75.22;101787.75;4968015;28;20038;-66
2022/06/03 06:27:36;;;;;;;7.70;6.95;;;;;;;15.16;75.09;101787.31;4968161;28;20488;-66
2022/06/03 06:30:01;;;;;;;;;;;;;;;15.27;73.26;101779.78;4962805;28;20084;-66
2022/06/03 06:32:36;;;;;;;6.95;6.25;;;;;;;15.42;73.61;101774.09;4962304;28;19961;-66
2022/06/03 06:35:48;;;;;;;6.45;5.95;;;;;;;15.58;74.13;101770.16;4964533;28;20085;-67
2022/06/03 06:38:37;;;;;;;7.70;6.72;;;;;;;15.77;72.62;101774.97;4970580;28;20046;-66
2022/06/03 06:41:30;;;;;;;8.25;6.50;;;;;;;15.94;71.92;101778.88;4954936;28;20034;-66
2022/06/03 06:44:09;;;;;;;6.90;6.30;;;;;;;16.09;71.47;101777.53;4970833;28;20030;-66
2022/06/03 06:46:59;;;;;;;6.88;6.38;;;;;;;16.25;69.70;101772.66;4972226;28;20042;-66
2022/06/03 06:49:41;;;;;;;7.07;6.40;;;;;;;16.37;69.43;101777.31;4966871;28;20531;-66
2022/06/03 06:52:25;;;;;;;7.00;6.25;;;;;;;16.49;69.50;101776.69;4953684;28;20388;-66
2022/06/03 06:55:16;;;;;;;6.57;5.97;;;;;;;16.61;68.60;101779.56;4956100;28;20074;-66
2022/06/03 06:57:46;;;;;;;;;;;;;;;16.79;69.01;101776.47;4956144;28;20139;-66
2022/06/03 07:00:26;;;;;;;6.35;5.85;;;;;;;16.95;67.59;101776.78;4958343;28;19968;-66
2022/06/03 07:02:59;;;;;;;6.72;5.70;;;;;;;17.06;67.38;101774.38;4957087;28;20551;-66
2022/06/03 07:05:51;;;;;;;8.68;6.20;;;;;;;17.18;66.55;101776.38;4959941;28;20035;-66
2022/06/03 07:08:21;;;;;;;9.05;6.60;;;;;;;17.32;66.54;101775.78;4934718;28;20435;-66
2022/06/03 07:11:01;;;;;;;7.07;6.45;;;;;;;17.33;63.63;101780.13;4957351;28;20021;-66
2022/06/03 07:13:39;;;;;;;6.40;5.80;;;;;;;17.42;64.14;101772.47;4955118;28;20106;-66
2022/06/03 07:22:16;;;;;;;6.35;5.15;;;;;;;17.70;61.85;101767.69;4954234;28;20649;-66
2022/06/03 07:24:51;;;;;;;6.10;5.60;;;;;;;17.82;61.95;101763.53;4955782;28;20022;-67
2022/06/03 07:27:32;;;;;;;5.80;5.10;;;;;;;17.96;62.82;101769.88;4952139;28;20074;-66
2022/06/03 07:30:10;;;;;;;6.53;5.90;;;;;;;18.08;62.34;101769.19;4953754;28;20093;-66
2022/06/03 07:32:44;;;;;;;6.43;5.82;;;;;;;18.14;62.29;101757.94;4954942;28;20066;-66
2022/06/03 07:35:28;;;;;;;6.85;5.55;;;;;;;18.33;62.67;101758.22;4952718;28;20399;-66
2022/06/03 07:38:11;;;;;;;5.55;5.05;;;;;;;18.49;60.26;101754.06;4965603;28;20035;-67
2022/06/03 07:40:41;;;;;;;6.45;5.85;;;;;;;18.62;60.90;101752.47;4971071;28;20547;-67
2022/06/03 07:43:19;;;;;;;6.00;5.50;;;;;;;18.71;61.21;101755.22;4955335;28;20026;-66
2022/06/03 07:45:56;;;;;;;6.07;5.20;;;;;;;18.93;61.07;101759.84;4954797;28;20042;-67
2022/06/03 07:48:25;;;;;;;5.80;5.30;;;;;;;19.12;60.63;101750.47;4951801;28;20030;-66
2022/06/03 07:50:58;;;;;;;6.20;5.60;;;;;;;19.30;60.68;101749.75;4956683;28;20012;-67
2022/06/03 07:53:44;;;;;;;7.15;6.53;;;;;;;19.47;58.98;101740.28;4951592;28;20804;-66
2022/06/03 07:56:10;;;;;;;6.53;5.93;;;;;;;19.63;58.98;101741.28;4950760;28;20839;-66
2022/06/03 07:58:37;;;;;;;7.43;6.20;;;;;;;19.78;58.96;101743.19;4950204;28;20031;-66
2022/06/03 08:01:19;;;;;;;7.30;6.60;;;;;;;19.83;56.50;101749.34;4951883;28;20101;-66
2022/06/03 08:03:45;;;;;;;7.32;6.45;;;;;;;19.94;56.95;101759.06;4950826;28;20134;-66
2022/06/03 08:06:11;;;;;;;7.50;6.90;;;;;;;20.06;57.57;101756.53;4955126;28;20121;-67
2022/06/03 08:11:32;;;;;;;6.20;5.70;;;;;;;20.48;57.84;101732.22;4969356;28;20045;-66
2022/06/03 08:14:00;;;;;;;7.53;6.80;;;;;;;20.71;56.33;101739.34;4969578;28;20082;-67
2022/06/03 08:16:33;;;;;;;6.43;5.90;;;;;;;20.90;55.59;101727.13;4967262;28;20033;-67
2022/06/03 08:19:26;;;;;;;6.53;6.00;;;;;;;21.06;54.82;101720.19;4970437;28;20093;-66
2022/06/03 08:21:57;;;;;;;7.43;6.82;;;;;;;21.23;53.37;101719.31;4969751;28;20571;-67
2022/06/03 08:24:27;;;;;;;7.05;6.50;;;;;;;21.30;56.17;101721.06;4969545;28;20057;-66
2022/06/03 08:26:57;;;;;;;7.05;6.45;;;;;;;21.47;54.02;101709.66;4969699;28;20030;-66
2022/06/03 08:29:27;;;;;;;6.38;5.93;;;;;;;21.63;53.57;101710.53;4969914;28;20093;-67
2022/06/03 08:31:55;;;;;;;7.72;6.90;;;;;;;21.65;53.30;101714.06;4969947;28;20031;-67
2022/06/03 08:34:45;;;;;;;7.30;6.70;;;;;;;21.34;52.32;101714.03;4969477;28;20054;-66
2022/06/03 08:37:16;;;;;;;7.95;7.20;;;;;;;21.22;52.23;101715.81;4969188;28;20026;-67
2022/06/03 08:39:43;;;;;;;6.68;6.18;;;;;;;21.30;53.40;101720.22;4969253;28;20037;-67
2022/06/03 08:42:11;;;;;;;6.20;5.70;;;;;;;21.51;53.94;101729.00;4969736;28;20026;-66
2022/06/03 08:45:07;;;;;;;7.82;7.00;;;;;;;21.72;54.63;101720.19;4969875;28;20502;-67
2022/06/03 08:47:42;;;;;;;6.80;6.13;;;;;;;21.96;52.82;101713.19;4968270;28;20035;-67
2022/06/03 08:50:21;;;;;;;7.03;6.18;;;;;;;22.04;51.36;101708.75;4968999;28;20030;-66
2022/06/03 08:53:07;;;;;;;7.13;6.63;;;;;;;22.02;49.66;101712.28;4969567;28;20019;-67
2022/06/03 08:55:47;;;;;;;6.80;6.20;;;;;;;22.14;50.18;101722.81;4969143;28;20088;-66
2022/06/03 08:58:22;;;;;;;7.00;6.23;;;;;;;22.29;49.82;101727.16;4962475;28;20117;-67
2022/06/03 09:00:58;;;;;;;7.70;7.10;;;;;;;22.31;49.04;101716.59;4959340;28;20317;-67
2022/06/03 09:03:28;;;;;;;7.60;6.78;;;;;;;22.36;49.97;101721.88;4962954;28;20026;-67
2022/06/03 09:06:06;;;;;;;6.43;5.80;;;;;;;22.52;50.15;101720.91;4966423;28;20062;-66
2022/06/03 09:08:44;;;;;;;7.40;5.80;;;;;;;22.69;50.17;101714.69;4961953;28;20541;-67
2022/06/03 09:11:15;;;;;;;6.57;6.07;;;;;;;22.79;49.69;101705.84;4962700;28;20113;-67
2022/06/03 09:13:51;;;;;;;7.53;5.60;;;;;;;22.94;49.48;101708.38;4961949;28;20046;-67
2022/06/03 09:16:18;;;;;;;6.40;5.82;;;;;;;23.09;48.71;101704.78;4967114;28;20034;-67
2022/06/03 09:18:54;;;;;;;5.85;5.35;;;;;;;23.07;46.27;101704.78;4967646;28;20360;-66
2022/06/03 09:21:31;;;;;;;5.38;4.97;;;;;;;22.93;46.33;101704.88;4962100;28;20043;-67
2022/06/03 09:24:07;;;;;;;5.45;4.80;;;;;;;22.95;46.74;101708.41;4963762;28;20498;-67
2022/06/03 09:26:38;;;;;;;6.68;4.93;;;;;;;22.91;48.70;101711.94;4968638;28;20066;-67
2022/06/03 09:29:05;;;;;;;;;;;;;;;22.97;47.43;101713.69;4969532;28;20035;-67
2022/06/03 09:31:34;;;;;;;5.05;4.53;;;;;;;23.12;47.70;101707.38;4951066;28;19969;-66
2022/06/03 09:34:01;;;;;;;4.40;4.05;;;;;;;23.30;45.61;101705.50;4963256;28;20471;-67
2022/06/03 09:36:28;;;;;;;3.30;3.10;;;;;;;23.47;43.44;101701.00;4961831;28;20128;-66
2022/06/03 09:39:00;;;;;;;3.92;3.50;;;;;;;23.65;46.16;101707.00;4966484;28;20022;-67
2022/06/03 09:41:31;;;;;;;4.40;4.00;;;;;;;23.81;44.72;101696.28;4959781;28;20031;-66
2022/06/03 09:43:58;;;;;;;4.30;3.85;;;;;;;23.94;45.91;101703.22;4968195;28;20027;-66
2022/06/03 09:46:28;;;;;;;4.65;4.15;;;;;;;24.04;44.22;101703.09;4968157;28;20030;-66
2022/06/03 09:48:55;;;;;;;4.15;3.75;;;;;;;24.10;42.40;101687.16;4968205;28;20053;-67
2022/06/03 09:54:12;;;;;;;4.28;3.88;;;;;;;24.03;42.45;101702.22;4966871;28;20433;-67
2022/06/03 09:56:39;;;;;;;3.17;2.92;;;;;;;24.02;42.38;101696.91;4968186;28;20546;-67
2022/06/03 09:59:05;;;;;;;5.20;3.08;;;;;;;24.11;43.21;101694.19;4968101;28;20057;-67
2022/06/03 10:01:31;;;;;;;4.15;3.15;;;;;;;24.14;43.12;101694.13;4965518;28;20499;-67
2022/06/03 10:03:59;;;;;;;3.30;3.00;;;;;;;24.14;42.64;101685.34;4968003;28;20026;-67
2022/06/03 10:14:40;;;;;;;2.67;2.38;;;;;;;24.21;40.44;101682.63;4960163;28;20045;-67
2022/06/03 10:17:08;;;;;;;2.67;2.42;;;;;;;24.19;38.87;101676.50;4962004;28;20415;-67
2022/06/03 10:19:34;;;;;;;2.60;2.40;;;;;;;24.19;39.96;101676.50;4966744;28;20043;-67
2022/06/03 10:21:59;;;;;;;3.42;2.60;;;;;;;24.31;41.86;101674.56;4967745;28;20430;-67
2022/06/03 10:24:32;;;;;;;2.95;2.70;;;;;;;24.42;41.26;101664.72;4967822;28;20461;-67
2022/06/03 10:27:03;;;;;;;3.75;2.70;;;;;;;24.41;39.86;101662.94;4968141;28;20100;-67
2022/06/03 10:29:29;;;;;;;2.85;2.05;;;;;;;24.47;40.86;101667.28;4967704;28;20022;-67
2022/06/03 10:32:02;;;;;;;3.53;1.80;;;;;;;24.61;40.43;101661.78;4967050;28;20058;-67
2022/06/03 10:34:35;;;;;;;1.50;1.40;;;;;;;24.68;38.24;101655.50;4967078;28;20035;-67
2022/06/03 10:37:02;;;;;;;2.20;2.00;;;;;;;24.63;37.33;101644.13;4967801;28;20173;-67
2022/06/03 10:39:28;;;;;;;4.43;2.03;;;;;;;24.53;39.46;101647.81;4967738;28;20058;-67
2022/06/03 10:41:58;;;;;;;1.60;1.20;;;;;;;24.63;38.31;101644.13;4966793;28;20030;-67
2022/06/03 10:44:26;;;;;;;3.38;1.40;;;;;;;24.69;36.64;101656.41;4968061;28;20026;-67
2022/06/03 10:47:02;;;;;;;1.23;1.13;;;;;;;24.57;36.63;101660.13;4967679;28;20023;-67
2022/06/03 10:49:30;;;;;;;2.55;1.30;;;;;;;24.49;37.11;101654.03;4966075;28;20081;-67
2022/06/03 11:02:58;;;;;;;2.53;1.15;;;;;;;24.58;34.62;101653.91;4965308;28;20387;-68
2022/06/03 11:05:31;;;;;;;0.95;0.75;;;;;;;24.62;33.34;101646.78;4966724;28;20030;-68
2022/06/03 11:08:07;;;;;;;1.13;0.93;;;;;;;24.64;34.71;101645.00;4968338;28;20031;-67
2022/06/03 11:10:40;;;;;;;1.15;1.05;;;;;;;24.81;38.32;101650.03;4968209;28;20038;-68
2022/06/03 11:13:08;;;;;;;2.33;1.00;;;;;;;24.97;37.09;101637.44;4967429;28;20038;-68
2022/06/03 11:15:41;;;;;;;1.48;1.38;;;;;;;25.09;37.48;101636.38;4968811;28;20026;-69
2022/06/03 11:18:29;;;;;;;3.45;1.08;;;;;;;25.23;34.04;101640.56;4968969;28;20865;-69
2022/06/03 11:20:57;;;;;;;1.40;1.30;;;;;;;25.15;34.48;101638.06;4967117;28;20615;-69
2022/06/03 11:23:22;;;;;;;1.40;1.30;;;;;;;25.05;33.49;101645.28;4969545;28;20166;-70
2022/06/03 11:25:54;;;;;;;2.50;1.30;;;;;;;24.81;33.30;101635.00;4970245;28;20489;-70
2022/06/03 11:28:26;;;;;;;2.38;1.10;;;;;;;24.64;34.46;101635.28;4968852;28;20030;-70
2022/06/03 11:30:57;;;;;;;2.47;1.55;;;;;;;24.62;35.48;101629.13;4970365;28;20041;-70
2022/06/03 11:33:44;;;;;;;1.30;1.20;;;;;;;24.74;37.63;101638.66;4970555;28;20086;-70
2022/06/03 11:36:19;;;;;;;2.45;1.10;;;;;;;24.86;37.32;101632.28;4970043;28;20030;-70
2022/06/03 11:38:52;;;;;;;1.75;1.60;;;;;;;24.77;35.18;101629.81;4970723;28;20030;-70
2022/06/03 11:41:42;;;;;;;2.05;0.98;;;;;;;24.74;34.40;101629.81;4970368;28;20031;-70
2022/06/03 11:44:14;;;;;;;3.22;1.52;;;;;;;24.67;34.79;101629.94;4970764;28;20034;-70
2022/06/03 11:46:46;;;;;;;1.10;1.10;;;;;;;24.69;35.37;101630.78;4970469;28;20057;-70
2022/06/03 11:49:17;;;;;;;5.57;2.20;;;;;;;24.62;33.99;101617.66;4972095;28;20825;-70
2022/06/03 11:51:43;;;;;;;2.65;1.55;;;;;;;24.58;34.59;101614.16;4972064;28;20099;-70
2022/06/03 11:54:13;;;;;;;2.72;1.75;;;;;;;24.57;34.44;101623.03;4971615;28;20193;-71
2022/06/03 11:56:41;;;;;;;1.50;1.30;;;;;;;24.63;35.88;101625.56;4972088;28;20035;-71
2022/06/03 11:59:34;;;;;;;2.08;1.50;;;;;;;24.79;35.97;101626.22;4970626;28;20056;-71
2022/06/03 12:02:14;;;;;;;1.63;1.05;;;;;;;25.03;38.64;101637.38;4971064;28;20451;-71
2022/06/03 12:04:49;;;;;;;1.35;1.25;;;;;;;25.18;35.69;101630.91;4971136;28;20034;-71
2022/06/03 12:07:38;;;;;;;2.78;1.90;;;;;;;25.26;35.55;101629.91;4970525;28;20050;-70
2022/06/03 12:10:23;;;;;;;2.20;1.73;;;;;;;25.29;35.10;101635.19;4970314;28;20081;-71
2022/06/03 12:13:15;;;;;;;1.52;1.30;;;;;;;25.44;33.86;101625.19;4971191;28;20030;-71
2022/06/03 12:15:48;;;;;;;2.10;1.20;;;;;;;25.41;32.83;101621.69;4970145;28;20049;-70
2022/06/03 12:18:13;;;;;;;1.20;1.10;;;;;;;25.57;34.54;101620.50;4971627;28;20030;-70
2022/06/03 12:20:47;;;;;;;2.05;1.00;;;;;;;25.67;34.34;101606.22;4970403;28;20061;-70
2022/06/03 12:23:12;;;;;;;1.83;1.42;;;;;;;25.84;34.34;101613.84;4970342;28;20023;-70
2022/06/03 12:25:44;;;;;;;1.40;1.30;;;;;;;25.99;35.31;101607.34;4969415;28;20360;-70
2022/06/03 12:28:24;;;;;;;1.48;1.00;;;;;;;26.01;33.24;101615.28;4968468;28;20039;-70
2022/06/03 12:30:51;;;;;;;3.30;1.40;;;;;;;26.09;33.90;101604.47;4969369;28;20165;-70
2022/06/03 12:33:24;;;;;;;2.53;1.30;;;;;;;26.00;32.31;101597.59;4966009;28;21182;-71
2022/06/03 12:36:00;;;;;;;1.75;1.30;;;;;;;25.90;33.73;101596.91;4967318;28;20038;-70
2022/06/03 12:38:31;;;;;;;1.40;1.30;;;;;;;25.76;33.07;101591.91;4951197;28;20046;-71
2022/06/03 12:41:00;;;;;;;1.50;1.23;;;;;;;25.62;33.13;101592.13;4970185;28;20109;-71
2022/06/03 12:43:28;;;;;;;2.20;0.88;;;;;;;25.77;35.02;101596.28;4970108;28;20114;-71
2022/06/03 12:46:32;;;;;;;3.28;0.90;;;;;;;25.99;36.89;101590.53;4959663;28;20037;-70
2022/06/03 12:48:57;;;;;;;1.92;1.05;;;;;;;26.13;32.94;101593.78;4969030;28;20030;-71
2022/06/03 12:51:28;;;;;;;2.35;0.90;;;;;;;26.17;33.51;101585.72;4952926;28;20022;-69
2022/06/03 12:54:14;;;;;;;1.63;1.20;;;;;;;26.11;31.33;101586.72;4970465;28;20054;-69
2022/06/03 12:56:51;;;;;;;1.88;0.90;;;;;;;26.13;33.37;101585.81;4969380;28;20608;-69
2022/06/03 12:59:29;;;;;;;3.63;1.30;;;;;;;26.02;32.23;101586.03;4969916;28;20538;-69